sensor_id;sensor_type;location;lat;lon;timestamp;P1;durP1;ratioP1;P2;durP2;ratioP2
52934;SDS011;38802;50.198;19.796;2022-10-16T00:01:41;16.50;;;13.50;;
52934;SDS011;38802;50.198;19.796;2022-10-16T00:04:09;15.90;;;14.30;;
52934;SDS011;38802;50.198;19.796;2022-10-16T00:06:38;15.00;;;13.60;;
52934;SDS011;38802;50.198;19.796;2022-10-16T00:09:06;15.90;;;14.20;;
52934;SDS011;38802;50.198;19.796;2022-10-16T00:11:35;16.90;;;13.30;;
52934;SDS011;38802;50.198;19.796;2022-10-16T00:14:07;15.30;;;13.70;;
52934;SDS011;38802;50.198;19.796;2022-10-16T00:16:37;15.60;;;13.70;;
52934;SDS011;38802;50.198;19.796;2022-10-16T00:19:06;16.30;;;13.10;;
52934;SDS011;38802;50.198;19.796;2022-10-16T00:21:34;15.30;;;13.80;;
52934;SDS011;38802;50.198;19.796;2022-10-16T00:24:03;16.00;;;13.70;;
52934;SDS011;38802;50.198;19.796;2022-10-16T00:26:33;15.60;;;13.90;;
52934;SDS011;38802;50.198;19.796;2022-10-16T00:29:04;14.60;;;13.30;;
52934;SDS011;38802;50.198;19.796;2022-10-16T00:31:33;15.60;;;14.00;;
52934;SDS011;38802;50.198;19.796;2022-10-16T00:34:01;15.00;;;13.50;;
52934;SDS011;38802;50.198;19.796;2022-10-16T00:36:29;15.20;;;13.70;;
52934;SDS011;38802;50.198;19.796;2022-10-16T00:39:01;16.40;;;14.30;;
52934;SDS011;38802;50.198;19.796;2022-10-16T00:41:30;15.60;;;13.60;;
52934;SDS011;38802;50.198;19.796;2022-10-16T00:44:00;15.10;;;12.90;;
52934;SDS011;38802;50.198;19.796;2022-10-16T00:46:34;14.80;;;13.30;;
52934;SDS011;38802;50.198;19.796;2022-10-16T00:49:07;15.70;;;14.10;;
52934;SDS011;38802;50.198;19.796;2022-10-16T00:51:49;13.20;;;11.90;;
52934;SDS011;38802;50.198;19.796;2022-10-16T00:54:21;15.70;;;14.10;;
52934;SDS011;38802;50.198;19.796;2022-10-16T00:56:53;15.10;;;13.30;;
52934;SDS011;38802;50.198;19.796;2022-10-16T00:59:27;15.00;;;13.00;;
52934;SDS011;38802;50.198;19.796;2022-10-16T01:02:04;13.00;;;11.70;;
52934;SDS011;38802;50.198;19.796;2022-10-16T01:04:37;18.30;;;13.20;;
52934;SDS011;38802;50.198;19.796;2022-10-16T01:09:57;16.70;;;12.10;;
52934;SDS011;38802;50.198;19.796;2022-10-16T01:12:45;16.00;;;12.50;;
52934;SDS011;38802;50.198;19.796;2022-10-16T01:20:51;13.90;;;12.60;;
52934;SDS011;38802;50.198;19.796;2022-10-16T01:28:45;14.40;;;12.70;;
52934;SDS011;38802;50.198;19.796;2022-10-16T01:31:21;14.30;;;13.00;;
52934;SDS011;38802;50.198;19.796;2022-10-16T01:33:56;14.60;;;12.80;;
52934;SDS011;38802;50.198;19.796;2022-10-16T01:36:55;15.90;;;11.70;;
52934;SDS011;38802;50.198;19.796;2022-10-16T01:39:29;12.00;;;11.00;;
52934;SDS011;38802;50.198;19.796;2022-10-16T01:42:03;12.30;;;11.20;;
52934;SDS011;38802;50.198;19.796;2022-10-16T01:44:36;11.70;;;10.50;;
52934;SDS011;38802;50.198;19.796;2022-10-16T01:47:07;12.10;;;10.90;;
52934;SDS011;38802;50.198;19.796;2022-10-16T01:49:38;14.20;;;10.60;;
52934;SDS011;38802;50.198;19.796;2022-10-16T01:52:11;12.60;;;11.30;;
52934;SDS011;38802;50.198;19.796;2022-10-16T01:54:43;11.80;;;10.70;;
52934;SDS011;38802;50.198;19.796;2022-10-16T01:57:14;11.60;;;10.60;;
52934;SDS011;38802;50.198;19.796;2022-10-16T01:59:47;11.80;;;10.70;;
52934;SDS011;38802;50.198;19.796;2022-10-16T02:02:20;12.00;;;10.80;;
52934;SDS011;38802;50.198;19.796;2022-10-16T02:04:58;13.40;;;12.20;;
52934;SDS011;38802;50.198;19.796;2022-10-16T02:07:38;15.80;;;10.80;;
52934;SDS011;38802;50.198;19.796;2022-10-16T02:10:09;11.20;;;10.20;;
52934;SDS011;38802;50.198;19.796;2022-10-16T02:12:38;12.10;;;10.50;;
52934;SDS011;38802;50.198;19.796;2022-10-16T02:15:11;12.00;;;10.20;;
52934;SDS011;38802;50.198;19.796;2022-10-16T02:17:40;12.40;;;11.10;;
52934;SDS011;38802;50.198;19.796;2022-10-16T02:20:09;14.30;;;10.00;;
52934;SDS011;38802;50.198;19.796;2022-10-16T02:22:39;12.70;;;10.60;;
52934;SDS011;38802;50.198;19.796;2022-10-16T02:25:13;11.90;;;10.60;;
52934;SDS011;38802;50.198;19.796;2022-10-16T02:28:06;13.90;;;10.80;;
52934;SDS011;38802;50.198;19.796;2022-10-16T02:30:41;11.30;;;10.30;;
52934;SDS011;38802;50.198;19.796;2022-10-16T02:33:12;11.00;;;9.90;;
52934;SDS011;38802;50.198;19.796;2022-10-16T02:35:43;11.90;;;10.50;;
52934;SDS011;38802;50.198;19.796;2022-10-16T02:38:14;12.00;;;9.90;;
52934;SDS011;38802;50.198;19.796;2022-10-16T02:40:43;11.10;;;10.00;;
52934;SDS011;38802;50.198;19.796;2022-10-16T02:43:12;11.50;;;10.40;;
52934;SDS011;38802;50.198;19.796;2022-10-16T02:45:41;13.70;;;10.30;;
52934;SDS011;38802;50.198;19.796;2022-10-16T02:48:09;12.10;;;9.90;;
52934;SDS011;38802;50.198;19.796;2022-10-16T02:50:37;12.20;;;10.90;;
52934;SDS011;38802;50.198;19.796;2022-10-16T02:53:05;11.00;;;10.00;;
52934;SDS011;38802;50.198;19.796;2022-10-16T02:55:33;11.90;;;10.80;;
52934;SDS011;38802;50.198;19.796;2022-10-16T02:58:01;11.70;;;10.50;;
52934;SDS011;38802;50.198;19.796;2022-10-16T03:00:29;12.60;;;11.60;;
52934;SDS011;38802;50.198;19.796;2022-10-16T03:02:57;12.50;;;10.90;;
52934;SDS011;38802;50.198;19.796;2022-10-16T03:05:25;12.00;;;10.90;;
52934;SDS011;38802;50.198;19.796;2022-10-16T03:07:53;13.20;;;11.00;;
52934;SDS011;38802;50.198;19.796;2022-10-16T03:10:21;15.00;;;13.40;;
52934;SDS011;38802;50.198;19.796;2022-10-16T03:12:49;13.10;;;12.00;;
52934;SDS011;38802;50.198;19.796;2022-10-16T03:15:20;13.90;;;12.60;;
52934;SDS011;38802;50.198;19.796;2022-10-16T03:17:48;19.20;;;12.70;;
52934;SDS011;38802;50.198;19.796;2022-10-16T03:20:16;13.80;;;12.40;;
52934;SDS011;38802;50.198;19.796;2022-10-16T03:22:44;14.00;;;12.70;;
52934;SDS011;38802;50.198;19.796;2022-10-16T03:25:12;14.50;;;13.10;;
52934;SDS011;38802;50.198;19.796;2022-10-16T03:27:40;14.50;;;12.40;;
52934;SDS011;38802;50.198;19.796;2022-10-16T03:30:08;13.90;;;12.30;;
52934;SDS011;38802;50.198;19.796;2022-10-16T03:32:37;18.60;;;12.90;;
52934;SDS011;38802;50.198;19.796;2022-10-16T03:35:05;13.20;;;11.80;;
52934;SDS011;38802;50.198;19.796;2022-10-16T03:37:33;15.10;;;12.80;;
52934;SDS011;38802;50.198;19.796;2022-10-16T03:40:02;14.30;;;12.90;;
52934;SDS011;38802;50.198;19.796;2022-10-16T03:42:32;13.30;;;12.00;;
52934;SDS011;38802;50.198;19.796;2022-10-16T03:45:00;13.50;;;12.10;;
52934;SDS011;38802;50.198;19.796;2022-10-16T03:47:28;13.40;;;12.00;;
52934;SDS011;38802;50.198;19.796;2022-10-16T03:49:56;13.70;;;12.00;;
52934;SDS011;38802;50.198;19.796;2022-10-16T03:52:24;13.00;;;11.80;;
52934;SDS011;38802;50.198;19.796;2022-10-16T03:54:52;18.10;;;12.00;;
52934;SDS011;38802;50.198;19.796;2022-10-16T03:57:20;13.20;;;11.80;;
52934;SDS011;38802;50.198;19.796;2022-10-16T03:59:49;13.10;;;11.80;;
52934;SDS011;38802;50.198;19.796;2022-10-16T04:02:17;12.50;;;11.20;;
52934;SDS011;38802;50.198;19.796;2022-10-16T04:04:45;17.60;;;12.70;;
52934;SDS011;38802;50.198;19.796;2022-10-16T04:07:13;15.20;;;11.70;;
52934;SDS011;38802;50.198;19.796;2022-10-16T04:09:41;12.30;;;11.10;;
52934;SDS011;38802;50.198;19.796;2022-10-16T04:12:09;12.40;;;11.30;;
52934;SDS011;38802;50.198;19.796;2022-10-16T04:14:37;13.10;;;12.00;;
52934;SDS011;38802;50.198;19.796;2022-10-16T04:17:05;12.90;;;11.70;;
52934;SDS011;38802;50.198;19.796;2022-10-16T04:19:33;13.00;;;11.70;;
52934;SDS011;38802;50.198;19.796;2022-10-16T04:22:02;13.30;;;11.90;;
52934;SDS011;38802;50.198;19.796;2022-10-16T04:24:30;13.20;;;11.80;;
52934;SDS011;38802;50.198;19.796;2022-10-16T04:26:58;13.80;;;12.30;;
52934;SDS011;38802;50.198;19.796;2022-10-16T04:29:26;13.70;;;12.50;;
52934;SDS011;38802;50.198;19.796;2022-10-16T04:31:54;13.90;;;12.20;;
52934;SDS011;38802;50.198;19.796;2022-10-16T04:34:22;15.00;;;12.30;;
52934;SDS011;38802;50.198;19.796;2022-10-16T04:36:50;14.10;;;12.30;;
52934;SDS011;38802;50.198;19.796;2022-10-16T04:39:18;12.80;;;11.70;;
52934;SDS011;38802;50.198;19.796;2022-10-16T04:41:47;13.90;;;12.50;;
52934;SDS011;38802;50.198;19.796;2022-10-16T04:44:15;14.10;;;11.90;;
52934;SDS011;38802;50.198;19.796;2022-10-16T04:46:43;17.80;;;14.90;;
52934;SDS011;38802;50.198;19.796;2022-10-16T04:49:12;17.50;;;14.20;;
52934;SDS011;38802;50.198;19.796;2022-10-16T04:51:40;15.00;;;13.40;;
52934;SDS011;38802;50.198;19.796;2022-10-16T04:54:09;16.20;;;13.70;;
52934;SDS011;38802;50.198;19.796;2022-10-16T04:56:37;16.80;;;13.20;;
52934;SDS011;38802;50.198;19.796;2022-10-16T04:59:14;15.00;;;13.30;;
52934;SDS011;38802;50.198;19.796;2022-10-16T05:01:42;15.40;;;13.80;;
52934;SDS011;38802;50.198;19.796;2022-10-16T05:04:11;15.30;;;13.10;;
52934;SDS011;38802;50.198;19.796;2022-10-16T05:06:39;14.60;;;13.10;;
52934;SDS011;38802;50.198;19.796;2022-10-16T05:09:08;15.50;;;14.10;;
52934;SDS011;38802;50.198;19.796;2022-10-16T05:11:37;15.40;;;13.70;;
52934;SDS011;38802;50.198;19.796;2022-10-16T05:14:05;18.40;;;14.00;;
52934;SDS011;38802;50.198;19.796;2022-10-16T05:16:33;15.10;;;13.60;;
52934;SDS011;38802;50.198;19.796;2022-10-16T05:19:01;19.90;;;14.50;;
52934;SDS011;38802;50.198;19.796;2022-10-16T05:21:49;16.20;;;14.30;;
52934;SDS011;38802;50.198;19.796;2022-10-16T05:24:17;15.80;;;14.10;;
52934;SDS011;38802;50.198;19.796;2022-10-16T05:26:45;16.70;;;13.50;;
52934;SDS011;38802;50.198;19.796;2022-10-16T05:29:13;20.50;;;14.60;;
52934;SDS011;38802;50.198;19.796;2022-10-16T05:31:41;21.60;;;14.10;;
52934;SDS011;38802;50.198;19.796;2022-10-16T05:34:09;16.20;;;13.70;;
52934;SDS011;38802;50.198;19.796;2022-10-16T05:36:37;19.70;;;14.10;;
52934;SDS011;38802;50.198;19.796;2022-10-16T05:39:05;15.90;;;14.20;;
52934;SDS011;38802;50.198;19.796;2022-10-16T05:41:34;16.70;;;13.90;;
52934;SDS011;38802;50.198;19.796;2022-10-16T05:44:05;16.60;;;13.20;;
52934;SDS011;38802;50.198;19.796;2022-10-16T05:46:34;17.20;;;13.70;;
52934;SDS011;38802;50.198;19.796;2022-10-16T05:49:02;17.10;;;13.80;;
52934;SDS011;38802;50.198;19.796;2022-10-16T05:51:30;18.00;;;14.90;;
52934;SDS011;38802;50.198;19.796;2022-10-16T05:53:58;22.60;;;15.00;;
52934;SDS011;38802;50.198;19.796;2022-10-16T05:56:26;16.50;;;14.60;;
52934;SDS011;38802;50.198;19.796;2022-10-16T05:58:55;15.60;;;14.10;;
52934;SDS011;38802;50.198;19.796;2022-10-16T06:01:23;14.10;;;12.70;;
52934;SDS011;38802;50.198;19.796;2022-10-16T06:03:52;15.90;;;13.00;;
52934;SDS011;38802;50.198;19.796;2022-10-16T06:06:21;14.60;;;12.70;;
52934;SDS011;38802;50.198;19.796;2022-10-16T06:08:52;17.50;;;12.80;;
52934;SDS011;38802;50.198;19.796;2022-10-16T06:11:22;14.20;;;12.80;;
52934;SDS011;38802;50.198;19.796;2022-10-16T06:13:54;17.50;;;12.90;;
52934;SDS011;38802;50.198;19.796;2022-10-16T06:16:24;13.90;;;12.30;;
52934;SDS011;38802;50.198;19.796;2022-10-16T06:18:54;14.20;;;12.70;;
52934;SDS011;38802;50.198;19.796;2022-10-16T06:21:28;14.30;;;12.60;;
52934;SDS011;38802;50.198;19.796;2022-10-16T06:23:57;17.00;;;12.90;;
52934;SDS011;38802;50.198;19.796;2022-10-16T06:26:26;14.40;;;12.80;;
52934;SDS011;38802;50.198;19.796;2022-10-16T06:28:56;14.30;;;12.80;;
52934;SDS011;38802;50.198;19.796;2022-10-16T06:31:27;14.40;;;12.90;;
52934;SDS011;38802;50.198;19.796;2022-10-16T06:33:59;13.70;;;12.50;;
52934;SDS011;38802;50.198;19.796;2022-10-16T06:36:28;13.90;;;12.50;;
52934;SDS011;38802;50.198;19.796;2022-10-16T06:38:56;13.60;;;12.30;;
52934;SDS011;38802;50.198;19.796;2022-10-16T06:41:24;17.10;;;13.20;;
52934;SDS011;38802;50.198;19.796;2022-10-16T06:44:09;11.10;;;10.20;;
52934;SDS011;38802;50.198;19.796;2022-10-16T06:46:37;13.20;;;11.80;;
52934;SDS011;38802;50.198;19.796;2022-10-16T06:49:06;13.40;;;12.00;;
52934;SDS011;38802;50.198;19.796;2022-10-16T06:51:34;13.50;;;11.80;;
52934;SDS011;38802;50.198;19.796;2022-10-16T06:54:08;11.90;;;10.90;;
52934;SDS011;38802;50.198;19.796;2022-10-16T06:56:36;11.80;;;10.80;;
52934;SDS011;38802;50.198;19.796;2022-10-16T06:59:05;13.10;;;11.80;;
52934;SDS011;38802;50.198;19.796;2022-10-16T07:01:33;10.70;;;9.80;;
52934;SDS011;38802;50.198;19.796;2022-10-16T07:04:01;11.60;;;10.50;;
52934;SDS011;38802;50.198;19.796;2022-10-16T07:06:33;12.70;;;10.90;;
52934;SDS011;38802;50.198;19.796;2022-10-16T07:09:04;12.60;;;11.30;;
52934;SDS011;38802;50.198;19.796;2022-10-16T07:11:34;11.40;;;10.00;;
52934;SDS011;38802;50.198;19.796;2022-10-16T07:14:03;11.20;;;10.10;;
52934;SDS011;38802;50.198;19.796;2022-10-16T07:16:32;11.20;;;10.20;;
52934;SDS011;38802;50.198;19.796;2022-10-16T07:19:02;12.90;;;9.90;;
52934;SDS011;38802;50.198;19.796;2022-10-16T07:21:31;12.00;;;9.70;;
52934;SDS011;38802;50.198;19.796;2022-10-16T07:24:05;10.50;;;8.90;;
52934;SDS011;38802;50.198;19.796;2022-10-16T07:26:35;10.50;;;9.20;;
52934;SDS011;38802;50.198;19.796;2022-10-16T07:29:14;9.60;;;8.20;;
52934;SDS011;38802;50.198;19.796;2022-10-16T07:31:45;10.10;;;8.80;;
52934;SDS011;38802;50.198;19.796;2022-10-16T07:34:14;10.80;;;9.10;;
52934;SDS011;38802;50.198;19.796;2022-10-16T07:36:47;10.00;;;9.00;;
52934;SDS011;38802;50.198;19.796;2022-10-16T07:39:16;10.80;;;9.70;;
52934;SDS011;38802;50.198;19.796;2022-10-16T07:41:45;10.00;;;9.00;;
52934;SDS011;38802;50.198;19.796;2022-10-16T07:44:13;10.30;;;9.30;;
52934;SDS011;38802;50.198;19.796;2022-10-16T07:46:43;8.70;;;7.90;;
52934;SDS011;38802;50.198;19.796;2022-10-16T07:49:11;9.20;;;8.30;;
52934;SDS011;38802;50.198;19.796;2022-10-16T07:51:39;8.50;;;7.60;;
52934;SDS011;38802;50.198;19.796;2022-10-16T07:54:08;8.70;;;8.00;;
52934;SDS011;38802;50.198;19.796;2022-10-16T07:56:39;9.70;;;7.80;;
52934;SDS011;38802;50.198;19.796;2022-10-16T07:59:10;9.20;;;8.40;;
52934;SDS011;38802;50.198;19.796;2022-10-16T08:01:39;9.70;;;8.70;;
52934;SDS011;38802;50.198;19.796;2022-10-16T08:04:08;9.20;;;8.40;;
52934;SDS011;38802;50.198;19.796;2022-10-16T08:06:37;10.10;;;7.90;;
52934;SDS011;38802;50.198;19.796;2022-10-16T08:09:07;9.50;;;8.60;;
52934;SDS011;38802;50.198;19.796;2022-10-16T08:11:36;11.60;;;8.00;;
52934;SDS011;38802;50.198;19.796;2022-10-16T08:14:04;9.80;;;8.80;;
52934;SDS011;38802;50.198;19.796;2022-10-16T08:16:32;9.60;;;8.40;;
52934;SDS011;38802;50.198;19.796;2022-10-16T08:19:01;8.20;;;7.40;;
52934;SDS011;38802;50.198;19.796;2022-10-16T08:21:29;9.10;;;7.80;;
52934;SDS011;38802;50.198;19.796;2022-10-16T08:23:57;8.70;;;7.90;;
52934;SDS011;38802;50.198;19.796;2022-10-16T08:26:26;8.10;;;7.40;;
52934;SDS011;38802;50.198;19.796;2022-10-16T08:28:55;8.30;;;7.60;;
52934;SDS011;38802;50.198;19.796;2022-10-16T08:31:23;9.70;;;8.40;;
52934;SDS011;38802;50.198;19.796;2022-10-16T08:33:52;9.60;;;7.30;;
52934;SDS011;38802;50.198;19.796;2022-10-16T08:36:20;12.30;;;8.00;;
52934;SDS011;38802;50.198;19.796;2022-10-16T08:38:49;8.60;;;7.00;;
52934;SDS011;38802;50.198;19.796;2022-10-16T08:41:23;8.90;;;8.00;;
52934;SDS011;38802;50.198;19.796;2022-10-16T08:47:08;8.30;;;7.00;;
52934;SDS011;38802;50.198;19.796;2022-10-16T08:52:28;8.40;;;7.80;;
52934;SDS011;38802;50.198;19.796;2022-10-16T08:55:00;7.60;;;6.80;;
52934;SDS011;38802;50.198;19.796;2022-10-16T08:57:29;8.10;;;7.50;;
52934;SDS011;38802;50.198;19.796;2022-10-16T09:00:00;8.70;;;7.60;;
52934;SDS011;38802;50.198;19.796;2022-10-16T09:14:23;8.60;;;7.30;;
52934;SDS011;38802;50.198;19.796;2022-10-16T09:17:14;8.00;;;7.20;;
52934;SDS011;38802;50.198;19.796;2022-10-16T09:19:50;10.10;;;7.30;;
52934;SDS011;38802;50.198;19.796;2022-10-16T09:22:26;11.10;;;8.90;;
52934;SDS011;38802;50.198;19.796;2022-10-16T09:25:09;7.70;;;7.00;;
52934;SDS011;38802;50.198;19.796;2022-10-16T09:27:48;8.30;;;7.60;;
52934;SDS011;38802;50.198;19.796;2022-10-16T09:30:21;7.90;;;6.80;;
52934;SDS011;38802;50.198;19.796;2022-10-16T09:32:51;11.00;;;7.50;;
52934;SDS011;38802;50.198;19.796;2022-10-16T09:38:04;7.60;;;7.00;;
52934;SDS011;38802;50.198;19.796;2022-10-16T09:40:35;8.10;;;7.40;;
52934;SDS011;38802;50.198;19.796;2022-10-16T09:45:40;9.80;;;8.80;;
52934;SDS011;38802;50.198;19.796;2022-10-16T09:48:12;8.90;;;8.10;;
52934;SDS011;38802;50.198;19.796;2022-10-16T09:50:40;9.50;;;7.00;;
52934;SDS011;38802;50.198;19.796;2022-10-16T09:53:12;8.60;;;7.00;;
52934;SDS011;38802;50.198;19.796;2022-10-16T09:55:48;8.30;;;7.50;;
52934;SDS011;38802;50.198;19.796;2022-10-16T09:58:21;8.80;;;7.70;;
52934;SDS011;38802;50.198;19.796;2022-10-16T10:00:53;19.20;;;10.10;;
52934;SDS011;38802;50.198;19.796;2022-10-16T10:03:36;8.80;;;7.90;;
52934;SDS011;38802;50.198;19.796;2022-10-16T10:06:14;8.40;;;7.50;;
52934;SDS011;38802;50.198;19.796;2022-10-16T10:11:41;7.50;;;6.80;;
52934;SDS011;38802;50.198;19.796;2022-10-16T10:16:43;9.30;;;8.50;;
52934;SDS011;38802;50.198;19.796;2022-10-16T10:19:18;8.40;;;7.80;;
52934;SDS011;38802;50.198;19.796;2022-10-16T10:21:49;8.80;;;8.00;;
52934;SDS011;38802;50.198;19.796;2022-10-16T10:24:19;9.60;;;8.20;;
52934;SDS011;38802;50.198;19.796;2022-10-16T10:26:54;9.90;;;7.40;;
52934;SDS011;38802;50.198;19.796;2022-10-16T10:35:14;8.90;;;7.60;;
52934;SDS011;38802;50.198;19.796;2022-10-16T10:46:05;8.50;;;7.70;;
52934;SDS011;38802;50.198;19.796;2022-10-16T10:51:53;7.70;;;7.10;;
52934;SDS011;38802;50.198;19.796;2022-10-16T10:54:29;9.60;;;7.70;;
52934;SDS011;38802;50.198;19.796;2022-10-16T11:00:27;7.40;;;6.70;;
52934;SDS011;38802;50.198;19.796;2022-10-16T11:05:52;7.70;;;7.00;;
52934;SDS011;38802;50.198;19.796;2022-10-16T11:08:28;8.80;;;8.00;;
52934;SDS011;38802;50.198;19.796;2022-10-16T11:11:03;9.40;;;7.80;;
52934;SDS011;38802;50.198;19.796;2022-10-16T11:16:29;8.30;;;7.50;;
52934;SDS011;38802;50.198;19.796;2022-10-16T11:22:27;8.40;;;7.60;;
52934;SDS011;38802;50.198;19.796;2022-10-16T11:27:55;8.50;;;7.70;;
52934;SDS011;38802;50.198;19.796;2022-10-16T11:30:44;8.00;;;7.30;;
52934;SDS011;38802;50.198;19.796;2022-10-16T11:35:47;8.00;;;7.20;;
52934;SDS011;38802;50.198;19.796;2022-10-16T11:44:06;8.90;;;8.00;;
52934;SDS011;38802;50.198;19.796;2022-10-16T11:46:46;10.10;;;8.00;;
52934;SDS011;38802;50.198;19.796;2022-10-16T11:49:42;8.40;;;7.60;;
52934;SDS011;38802;50.198;19.796;2022-10-16T11:52:19;11.20;;;7.10;;
52934;SDS011;38802;50.198;19.796;2022-10-16T11:54:59;9.30;;;8.20;;
52934;SDS011;38802;50.198;19.796;2022-10-16T11:57:35;8.50;;;7.60;;
52934;SDS011;38802;50.198;19.796;2022-10-16T12:00:19;8.30;;;7.50;;
52934;SDS011;38802;50.198;19.796;2022-10-16T12:05:52;8.90;;;8.00;;
52934;SDS011;38802;50.198;19.796;2022-10-16T12:08:20;8.40;;;7.70;;
52934;SDS011;38802;50.198;19.796;2022-10-16T12:10:49;8.00;;;7.20;;
52934;SDS011;38802;50.198;19.796;2022-10-16T12:18:40;8.30;;;6.90;;
52934;SDS011;38802;50.198;19.796;2022-10-16T12:21:11;8.40;;;6.10;;
52934;SDS011;38802;50.198;19.796;2022-10-16T12:26:26;7.00;;;6.40;;
52934;SDS011;38802;50.198;19.796;2022-10-16T12:28:57;8.60;;;6.90;;
52934;SDS011;38802;50.198;19.796;2022-10-16T12:31:45;7.20;;;6.50;;
52934;SDS011;38802;50.198;19.796;2022-10-16T12:34:29;7.10;;;6.50;;
52934;SDS011;38802;50.198;19.796;2022-10-16T12:39:49;11.40;;;6.50;;
52934;SDS011;38802;50.198;19.796;2022-10-16T12:44:54;7.70;;;6.80;;
52934;SDS011;38802;50.198;19.796;2022-10-16T12:50:30;7.60;;;6.20;;
52934;SDS011;38802;50.198;19.796;2022-10-16T12:53:03;7.90;;;6.40;;
52934;SDS011;38802;50.198;19.796;2022-10-16T13:04:01;7.00;;;6.40;;
52934;SDS011;38802;50.198;19.796;2022-10-16T13:14:40;7.30;;;6.10;;
52934;SDS011;38802;50.198;19.796;2022-10-16T13:23:12;7.30;;;6.60;;
52934;SDS011;38802;50.198;19.796;2022-10-16T13:28:53;6.80;;;6.10;;
52934;SDS011;38802;50.198;19.796;2022-10-16T13:31:22;7.90;;;6.70;;
52934;SDS011;38802;50.198;19.796;2022-10-16T13:33:54;7.50;;;6.80;;
52934;SDS011;38802;50.198;19.796;2022-10-16T13:36:33;6.90;;;6.20;;
52934;SDS011;38802;50.198;19.796;2022-10-16T13:42:05;6.00;;;5.50;;
52934;SDS011;38802;50.198;19.796;2022-10-16T13:44:46;6.80;;;6.10;;
52934;SDS011;38802;50.198;19.796;2022-10-16T13:47:18;6.60;;;6.00;;
52934;SDS011;38802;50.198;19.796;2022-10-16T13:50:03;7.10;;;6.50;;
52934;SDS011;38802;50.198;19.796;2022-10-16T13:52:49;7.60;;;6.20;;
52934;SDS011;38802;50.198;19.796;2022-10-16T13:55:18;7.10;;;6.50;;
52934;SDS011;38802;50.198;19.796;2022-10-16T13:57:46;7.00;;;6.00;;
52934;SDS011;38802;50.198;19.796;2022-10-16T14:00:19;10.60;;;6.60;;
52934;SDS011;38802;50.198;19.796;2022-10-16T14:05:47;9.30;;;7.10;;
52934;SDS011;38802;50.198;19.796;2022-10-16T14:08:18;10.30;;;7.10;;
52934;SDS011;38802;50.198;19.796;2022-10-16T14:10:47;7.10;;;6.40;;
52934;SDS011;38802;50.198;19.796;2022-10-16T14:13:20;10.90;;;7.30;;
52934;SDS011;38802;50.198;19.796;2022-10-16T14:15:56;7.40;;;6.60;;
52934;SDS011;38802;50.198;19.796;2022-10-16T14:18:26;9.60;;;7.10;;
52934;SDS011;38802;50.198;19.796;2022-10-16T14:23:34;10.10;;;7.10;;
52934;SDS011;38802;50.198;19.796;2022-10-16T14:26:06;7.80;;;7.10;;
52934;SDS011;38802;50.198;19.796;2022-10-16T14:28:35;7.50;;;6.80;;
52934;SDS011;38802;50.198;19.796;2022-10-16T14:31:28;9.40;;;6.60;;
52934;SDS011;38802;50.198;19.796;2022-10-16T14:33:58;7.10;;;6.50;;
52934;SDS011;38802;50.198;19.796;2022-10-16T14:36:27;10.00;;;7.60;;
52934;SDS011;38802;50.198;19.796;2022-10-16T14:41:45;6.70;;;6.00;;
52934;SDS011;38802;50.198;19.796;2022-10-16T14:44:17;6.90;;;6.30;;
52934;SDS011;38802;50.198;19.796;2022-10-16T14:46:46;7.70;;;6.30;;
52934;SDS011;38802;50.198;19.796;2022-10-16T14:49:16;14.30;;;6.40;;
52934;SDS011;38802;50.198;19.796;2022-10-16T14:51:48;7.90;;;6.50;;
52934;SDS011;38802;50.198;19.796;2022-10-16T14:54:16;6.80;;;6.20;;
52934;SDS011;38802;50.198;19.796;2022-10-16T14:56:53;7.30;;;6.70;;
52934;SDS011;38802;50.198;19.796;2022-10-16T14:59:28;7.30;;;6.30;;
52934;SDS011;38802;50.198;19.796;2022-10-16T15:02:15;7.30;;;6.60;;
52934;SDS011;38802;50.198;19.796;2022-10-16T15:05:07;7.00;;;6.40;;
52934;SDS011;38802;50.198;19.796;2022-10-16T15:07:42;12.10;;;7.00;;
52934;SDS011;38802;50.198;19.796;2022-10-16T15:10:15;9.20;;;7.50;;
52934;SDS011;38802;50.198;19.796;2022-10-16T15:12:45;7.50;;;6.90;;
52934;SDS011;38802;50.198;19.796;2022-10-16T15:17:51;8.40;;;7.60;;
52934;SDS011;38802;50.198;19.796;2022-10-16T15:20:29;7.40;;;6.40;;
52934;SDS011;38802;50.198;19.796;2022-10-16T15:23:06;8.10;;;7.30;;
52934;SDS011;38802;50.198;19.796;2022-10-16T15:25:43;12.00;;;7.40;;
52934;SDS011;38802;50.198;19.796;2022-10-16T15:28:14;7.40;;;6.60;;
52934;SDS011;38802;50.198;19.796;2022-10-16T15:30:43;11.30;;;7.50;;
52934;SDS011;38802;50.198;19.796;2022-10-16T15:33:14;9.60;;;7.60;;
52934;SDS011;38802;50.198;19.796;2022-10-16T15:35:47;11.80;;;6.90;;
52934;SDS011;38802;50.198;19.796;2022-10-16T15:38:16;8.60;;;7.60;;
52934;SDS011;38802;50.198;19.796;2022-10-16T15:40:47;8.10;;;7.40;;
52934;SDS011;38802;50.198;19.796;2022-10-16T15:43:16;8.70;;;7.10;;
52934;SDS011;38802;50.198;19.796;2022-10-16T15:45:46;11.80;;;8.10;;
52934;SDS011;38802;50.198;19.796;2022-10-16T15:48:31;10.20;;;7.80;;
52934;SDS011;38802;50.198;19.796;2022-10-16T15:51:00;11.10;;;8.50;;
52934;SDS011;38802;50.198;19.796;2022-10-16T15:53:33;12.90;;;8.10;;
52934;SDS011;38802;50.198;19.796;2022-10-16T15:56:02;9.00;;;8.10;;
52934;SDS011;38802;50.198;19.796;2022-10-16T15:58:32;11.20;;;8.10;;
52934;SDS011;38802;50.198;19.796;2022-10-16T16:01:01;10.30;;;8.70;;
52934;SDS011;38802;50.198;19.796;2022-10-16T16:03:32;12.90;;;9.30;;
52934;SDS011;38802;50.198;19.796;2022-10-16T16:06:05;11.20;;;9.20;;
52934;SDS011;38802;50.198;19.796;2022-10-16T16:08:38;11.00;;;9.90;;
52934;SDS011;38802;50.198;19.796;2022-10-16T16:11:08;12.70;;;11.10;;
52934;SDS011;38802;50.198;19.796;2022-10-16T16:13:38;12.70;;;10.80;;
52934;SDS011;38802;50.198;19.796;2022-10-16T16:16:12;11.70;;;10.00;;
52934;SDS011;38802;50.198;19.796;2022-10-16T16:18:43;11.10;;;10.10;;
52934;SDS011;38802;50.198;19.796;2022-10-16T16:21:12;10.10;;;9.20;;
52934;SDS011;38802;50.198;19.796;2022-10-16T16:23:40;10.70;;;9.60;;
52934;SDS011;38802;50.198;19.796;2022-10-16T16:26:13;10.20;;;9.20;;
52934;SDS011;38802;50.198;19.796;2022-10-16T16:28:52;11.10;;;9.80;;
52934;SDS011;38802;50.198;19.796;2022-10-16T16:31:25;10.60;;;9.70;;
52934;SDS011;38802;50.198;19.796;2022-10-16T16:33:55;10.30;;;9.40;;
52934;SDS011;38802;50.198;19.796;2022-10-16T16:36:27;10.80;;;9.50;;
52934;SDS011;38802;50.198;19.796;2022-10-16T16:38:56;12.80;;;9.90;;
52934;SDS011;38802;50.198;19.796;2022-10-16T16:41:25;12.00;;;10.90;;
52934;SDS011;38802;50.198;19.796;2022-10-16T16:44:00;11.70;;;10.50;;
52934;SDS011;38802;50.198;19.796;2022-10-16T16:46:34;11.20;;;9.70;;
52934;SDS011;38802;50.198;19.796;2022-10-16T16:49:02;10.90;;;9.90;;
52934;SDS011;38802;50.198;19.796;2022-10-16T16:51:31;11.70;;;10.30;;
52934;SDS011;38802;50.198;19.796;2022-10-16T16:54:06;12.50;;;11.10;;
52934;SDS011;38802;50.198;19.796;2022-10-16T16:56:35;19.70;;;10.60;;
52934;SDS011;38802;50.198;19.796;2022-10-16T16:59:04;12.20;;;9.40;;
52934;SDS011;38802;50.198;19.796;2022-10-16T17:01:32;14.90;;;11.80;;
52934;SDS011;38802;50.198;19.796;2022-10-16T17:04:00;13.30;;;9.80;;
52934;SDS011;38802;50.198;19.796;2022-10-16T17:06:29;15.90;;;11.70;;